sensor_id;sensor_type;location;lat;lon;timestamp;P1;durP1;ratioP1;P2;durP2;ratioP2
14076;SDS011;7114;51.100;13.998;2024-03-02T00:00:11;26.23;;;14.00;;
14076;SDS011;7114;51.100;13.998;2024-03-02T00:02:39;27.60;;;15.60;;
14076;SDS011;7114;51.100;13.998;2024-03-02T00:05:06;28.15;;;14.90;;
14076;SDS011;7114;51.100;13.998;2024-03-02T00:07:33;28.88;;;14.88;;
14076;SDS011;7114;51.100;13.998;2024-03-02T00:10:01;28.10;;;15.18;;
14076;SDS011;7114;51.100;13.998;2024-03-02T00:12:32;27.87;;;15.07;;
14076;SDS011;7114;51.100;13.998;2024-03-02T00:15:01;29.02;;;15.23;;
14076;SDS011;7114;51.100;13.998;2024-03-02T00:17:28;27.88;;;14.32;;
14076;SDS011;7114;51.100;13.998;2024-03-02T00:19:55;25.67;;;14.63;;
14076;SDS011;7114;51.100;13.998;2024-03-02T00:22:22;28.00;;;14.50;;
14076;SDS011;7114;51.100;13.998;2024-03-02T00:24:49;27.63;;;15.27;;
14076;SDS011;7114;51.100;13.998;2024-03-02T00:27:15;27.00;;;14.00;;
14076;SDS011;7114;51.100;13.998;2024-03-02T00:29:44;27.67;;;14.87;;
14076;SDS011;7114;51.100;13.998;2024-03-02T00:32:10;27.10;;;14.77;;
14076;SDS011;7114;51.100;13.998;2024-03-02T00:34:38;26.88;;;14.77;;
14076;SDS011;7114;51.100;13.998;2024-03-02T00:37:05;28.45;;;14.88;;
14076;SDS011;7114;51.100;13.998;2024-03-02T00:39:31;27.30;;;14.57;;
14076;SDS011;7114;51.100;13.998;2024-03-02T00:41:57;24.97;;;14.60;;
14076;SDS011;7114;51.100;13.998;2024-03-02T00:44:25;28.40;;;14.90;;
14076;SDS011;7114;51.100;13.998;2024-03-02T00:46:54;27.27;;;15.20;;
14076;SDS011;7114;51.100;13.998;2024-03-02T00:49:21;27.73;;;14.95;;
14076;SDS011;7114;51.100;13.998;2024-03-02T00:51:49;26.50;;;15.15;;
14076;SDS011;7114;51.100;13.998;2024-03-02T00:54:19;27.37;;;14.83;;
14076;SDS011;7114;51.100;13.998;2024-03-02T00:56:46;27.17;;;14.73;;
14076;SDS011;7114;51.100;13.998;2024-03-02T00:59:13;28.33;;;14.68;;
14076;SDS011;7114;51.100;13.998;2024-03-02T01:01:41;30.58;;;15.07;;
14076;SDS011;7114;51.100;13.998;2024-03-02T01:04:08;28.27;;;15.35;;
14076;SDS011;7114;51.100;13.998;2024-03-02T01:06:34;28.33;;;14.93;;
14076;SDS011;7114;51.100;13.998;2024-03-02T01:09:01;27.40;;;14.73;;
14076;SDS011;7114;51.100;13.998;2024-03-02T01:11:28;28.17;;;15.25;;
14076;SDS011;7114;51.100;13.998;2024-03-02T01:13:55;27.98;;;15.15;;
14076;SDS011;7114;51.100;13.998;2024-03-02T01:16:21;29.25;;;15.02;;
14076;SDS011;7114;51.100;13.998;2024-03-02T01:18:49;28.73;;;14.67;;
14076;SDS011;7114;51.100;13.998;2024-03-02T01:21:15;28.15;;;15.00;;
14076;SDS011;7114;51.100;13.998;2024-03-02T01:23:42;29.63;;;14.95;;
14076;SDS011;7114;51.100;13.998;2024-03-02T01:26:08;29.83;;;15.68;;
14076;SDS011;7114;51.100;13.998;2024-03-02T01:28:35;27.65;;;15.13;;
14076;SDS011;7114;51.100;13.998;2024-03-02T01:31:01;28.77;;;15.80;;
14076;SDS011;7114;51.100;13.998;2024-03-02T01:33:27;28.65;;;14.82;;
14076;SDS011;7114;51.100;13.998;2024-03-02T01:35:55;30.30;;;15.70;;
14076;SDS011;7114;51.100;13.998;2024-03-02T01:38:21;30.90;;;15.48;;
14076;SDS011;7114;51.100;13.998;2024-03-02T01:40:48;30.17;;;15.27;;
14076;SDS011;7114;51.100;13.998;2024-03-02T01:43:14;31.83;;;15.90;;
14076;SDS011;7114;51.100;13.998;2024-03-02T01:45:41;29.45;;;15.52;;
14076;SDS011;7114;51.100;13.998;2024-03-02T01:48:07;31.73;;;16.42;;
14076;SDS011;7114;51.100;13.998;2024-03-02T01:50:34;30.55;;;15.60;;
14076;SDS011;7114;51.100;13.998;2024-03-02T01:53:02;32.47;;;16.05;;
14076;SDS011;7114;51.100;13.998;2024-03-02T01:55:29;30.77;;;15.40;;
14076;SDS011;7114;51.100;13.998;2024-03-02T01:57:55;30.92;;;15.25;;
14076;SDS011;7114;51.100;13.998;2024-03-02T02:00:21;31.45;;;15.00;;
14076;SDS011;7114;51.100;13.998;2024-03-02T02:02:49;29.05;;;15.40;;
14076;SDS011;7114;51.100;13.998;2024-03-02T02:05:16;31.38;;;15.07;;
14076;SDS011;7114;51.100;13.998;2024-03-02T02:07:43;31.40;;;15.17;;
14076;SDS011;7114;51.100;13.998;2024-03-02T02:10:10;31.95;;;15.48;;
14076;SDS011;7114;51.100;13.998;2024-03-02T02:12:37;32.42;;;14.98;;
14076;SDS011;7114;51.100;13.998;2024-03-02T02:15:03;32.13;;;15.65;;
14076;SDS011;7114;51.100;13.998;2024-03-02T02:17:30;30.92;;;15.38;;
14076;SDS011;7114;51.100;13.998;2024-03-02T02:19:57;28.63;;;15.43;;
14076;SDS011;7114;51.100;13.998;2024-03-02T02:22:24;30.75;;;15.82;;
14076;SDS011;7114;51.100;13.998;2024-03-02T02:24:51;30.33;;;15.80;;
14076;SDS011;7114;51.100;13.998;2024-03-02T02:27:17;30.73;;;15.30;;
14076;SDS011;7114;51.100;13.998;2024-03-02T02:29:43;32.00;;;15.32;;
14076;SDS011;7114;51.100;13.998;2024-03-02T02:32:10;32.20;;;15.70;;
14076;SDS011;7114;51.100;13.998;2024-03-02T02:34:36;35.63;;;17.10;;
14076;SDS011;7114;51.100;13.998;2024-03-02T02:37:03;33.85;;;16.63;;
14076;SDS011;7114;51.100;13.998;2024-03-02T02:39:30;30.70;;;15.55;;
14076;SDS011;7114;51.100;13.998;2024-03-02T02:41:57;31.65;;;15.82;;
14076;SDS011;7114;51.100;13.998;2024-03-02T02:44:24;36.03;;;16.87;;
14076;SDS011;7114;51.100;13.998;2024-03-02T02:46:51;38.47;;;17.98;;
14076;SDS011;7114;51.100;13.998;2024-03-02T02:49:17;38.38;;;18.70;;
14076;SDS011;7114;51.100;13.998;2024-03-02T02:51:43;41.35;;;18.90;;
14076;SDS011;7114;51.100;13.998;2024-03-02T02:54:10;40.70;;;18.92;;
14076;SDS011;7114;51.100;13.998;2024-03-02T02:56:37;43.60;;;19.53;;
14076;SDS011;7114;51.100;13.998;2024-03-02T02:59:04;42.05;;;19.38;;
14076;SDS011;7114;51.100;13.998;2024-03-02T03:01:30;45.75;;;19.45;;
14076;SDS011;7114;51.100;13.998;2024-03-02T03:03:56;42.08;;;18.73;;
14076;SDS011;7114;51.100;13.998;2024-03-02T03:06:23;46.22;;;19.42;;
14076;SDS011;7114;51.100;13.998;2024-03-02T03:08:49;42.90;;;19.07;;
14076;SDS011;7114;51.100;13.998;2024-03-02T03:11:15;46.05;;;20.05;;
14076;SDS011;7114;51.100;13.998;2024-03-02T03:13:43;50.17;;;20.05;;
14076;SDS011;7114;51.100;13.998;2024-03-02T03:16:09;42.58;;;18.98;;
14076;SDS011;7114;51.100;13.998;2024-03-02T03:18:36;45.10;;;19.88;;
14076;SDS011;7114;51.100;13.998;2024-03-02T03:21:03;44.57;;;18.93;;
14076;SDS011;7114;51.100;13.998;2024-03-02T03:23:30;41.40;;;19.00;;
14076;SDS011;7114;51.100;13.998;2024-03-02T03:25:56;44.38;;;19.73;;
14076;SDS011;7114;51.100;13.998;2024-03-02T03:28:22;46.65;;;19.92;;
14076;SDS011;7114;51.100;13.998;2024-03-02T03:30:50;42.25;;;18.83;;
14076;SDS011;7114;51.100;13.998;2024-03-02T03:33:16;46.63;;;19.80;;
14076;SDS011;7114;51.100;13.998;2024-03-02T03:35:43;48.38;;;20.05;;
14076;SDS011;7114;51.100;13.998;2024-03-02T03:38:09;44.50;;;19.42;;
14076;SDS011;7114;51.100;13.998;2024-03-02T03:40:35;47.10;;;20.27;;
14076;SDS011;7114;51.100;13.998;2024-03-02T03:43:02;45.08;;;19.65;;
14076;SDS011;7114;51.100;13.998;2024-03-02T03:45:28;49.43;;;20.43;;
14076;SDS011;7114;51.100;13.998;2024-03-02T03:47:56;51.97;;;21.10;;
14076;SDS011;7114;51.100;13.998;2024-03-02T03:50:23;53.13;;;20.77;;
14076;SDS011;7114;51.100;13.998;2024-03-02T03:52:49;51.42;;;20.67;;
14076;SDS011;7114;51.100;13.998;2024-03-02T03:55:16;51.78;;;21.00;;
14076;SDS011;7114;51.100;13.998;2024-03-02T03:57:42;54.33;;;20.40;;
14076;SDS011;7114;51.100;13.998;2024-03-02T04:00:09;50.22;;;20.38;;
14076;SDS011;7114;51.100;13.998;2024-03-02T04:02:37;53.78;;;21.08;;
14076;SDS011;7114;51.100;13.998;2024-03-02T04:05:05;57.60;;;21.30;;
14076;SDS011;7114;51.100;13.998;2024-03-02T04:07:34;52.63;;;20.75;;
14076;SDS011;7114;51.100;13.998;2024-03-02T04:10:05;50.17;;;20.50;;
14076;SDS011;7114;51.100;13.998;2024-03-02T04:12:33;52.47;;;20.33;;
14076;SDS011;7114;51.100;13.998;2024-03-02T04:14:59;50.83;;;20.48;;
14076;SDS011;7114;51.100;13.998;2024-03-02T04:17:26;52.45;;;20.40;;
14076;SDS011;7114;51.100;13.998;2024-03-02T04:19:52;49.60;;;20.35;;
14076;SDS011;7114;51.100;13.998;2024-03-02T04:22:20;50.20;;;20.63;;
14076;SDS011;7114;51.100;13.998;2024-03-02T04:24:46;52.03;;;21.15;;
14076;SDS011;7114;51.100;13.998;2024-03-02T04:27:13;48.85;;;20.75;;
14076;SDS011;7114;51.100;13.998;2024-03-02T04:29:39;52.45;;;20.85;;
14076;SDS011;7114;51.100;13.998;2024-03-02T04:32:06;51.83;;;20.65;;
14076;SDS011;7114;51.100;13.998;2024-03-02T04:34:32;51.50;;;20.13;;
14076;SDS011;7114;51.100;13.998;2024-03-02T04:36:59;47.78;;;20.30;;
14076;SDS011;7114;51.100;13.998;2024-03-02T04:39:26;48.35;;;19.42;;
14076;SDS011;7114;51.100;13.998;2024-03-02T04:41:53;50.88;;;20.60;;
14076;SDS011;7114;51.100;13.998;2024-03-02T04:44:19;51.20;;;20.13;;
14076;SDS011;7114;51.100;13.998;2024-03-02T04:46:46;49.73;;;20.47;;
14076;SDS011;7114;51.100;13.998;2024-03-02T04:49:12;49.33;;;20.65;;
14076;SDS011;7114;51.100;13.998;2024-03-02T04:51:38;49.95;;;19.25;;
14076;SDS011;7114;51.100;13.998;2024-03-02T04:54:05;47.22;;;20.50;;
14076;SDS011;7114;51.100;13.998;2024-03-02T04:56:32;46.20;;;20.25;;
14076;SDS011;7114;51.100;13.998;2024-03-02T04:59:09;51.77;;;19.93;;
14076;SDS011;7114;51.100;13.998;2024-03-02T05:01:35;47.90;;;20.80;;
14076;SDS011;7114;51.100;13.998;2024-03-02T05:04:02;51.10;;;20.08;;
14076;SDS011;7114;51.100;13.998;2024-03-02T05:06:28;50.42;;;21.27;;
14076;SDS011;7114;51.100;13.998;2024-03-02T05:08:55;49.08;;;19.65;;
14076;SDS011;7114;51.100;13.998;2024-03-02T05:11:21;54.90;;;21.73;;
14076;SDS011;7114;51.100;13.998;2024-03-02T05:14:06;56.35;;;22.02;;
14076;SDS011;7114;51.100;13.998;2024-03-02T05:16:33;53.13;;;21.13;;
14076;SDS011;7114;51.100;13.998;2024-03-02T05:19:00;56.90;;;21.15;;
14076;SDS011;7114;51.100;13.998;2024-03-02T05:21:26;57.13;;;22.60;;
14076;SDS011;7114;51.100;13.998;2024-03-02T05:23:52;58.50;;;21.47;;
14076;SDS011;7114;51.100;13.998;2024-03-02T05:26:19;56.63;;;21.35;;
14076;SDS011;7114;51.100;13.998;2024-03-02T05:28:45;57.05;;;20.55;;
14076;SDS011;7114;51.100;13.998;2024-03-02T05:31:13;59.95;;;21.85;;
14076;SDS011;7114;51.100;13.998;2024-03-02T05:33:41;58.20;;;21.75;;
14076;SDS011;7114;51.100;13.998;2024-03-02T05:36:07;59.53;;;22.70;;
14076;SDS011;7114;51.100;13.998;2024-03-02T05:38:34;59.50;;;21.50;;
14076;SDS011;7114;51.100;13.998;2024-03-02T05:41:01;60.15;;;21.98;;
14076;SDS011;7114;51.100;13.998;2024-03-02T05:43:27;56.47;;;22.25;;
14076;SDS011;7114;51.100;13.998;2024-03-02T05:45:54;56.28;;;21.75;;
14076;SDS011;7114;51.100;13.998;2024-03-02T05:48:21;62.27;;;22.63;;
14076;SDS011;7114;51.100;13.998;2024-03-02T05:50:48;59.72;;;22.20;;
14076;SDS011;7114;51.100;13.998;2024-03-02T05:53:14;59.97;;;23.05;;
14076;SDS011;7114;51.100;13.998;2024-03-02T05:55:41;60.03;;;22.80;;
14076;SDS011;7114;51.100;13.998;2024-03-02T05:58:07;58.90;;;21.98;;
14076;SDS011;7114;51.100;13.998;2024-03-02T06:00:47;57.40;;;21.63;;
14076;SDS011;7114;51.100;13.998;2024-03-02T06:03:14;57.38;;;22.95;;
14076;SDS011;7114;51.100;13.998;2024-03-02T06:05:41;59.83;;;21.63;;
14076;SDS011;7114;51.100;13.998;2024-03-02T06:08:08;61.90;;;21.88;;
14076;SDS011;7114;51.100;13.998;2024-03-02T06:10:34;59.13;;;22.75;;
14076;SDS011;7114;51.100;13.998;2024-03-02T06:13:00;61.30;;;22.50;;
14076;SDS011;7114;51.100;13.998;2024-03-02T06:15:27;56.42;;;22.08;;
14076;SDS011;7114;51.100;13.998;2024-03-02T06:17:53;56.90;;;20.80;;
14076;SDS011;7114;51.100;13.998;2024-03-02T06:20:19;58.15;;;22.13;;
14076;SDS011;7114;51.100;13.998;2024-03-02T06:22:47;57.05;;;21.50;;
14076;SDS011;7114;51.100;13.998;2024-03-02T06:25:14;55.93;;;21.80;;
14076;SDS011;7114;51.100;13.998;2024-03-02T06:27:40;57.15;;;22.60;;
14076;SDS011;7114;51.100;13.998;2024-03-02T06:30:07;55.10;;;22.23;;
14076;SDS011;7114;51.100;13.998;2024-03-02T06:32:34;61.05;;;23.33;;
14076;SDS011;7114;51.100;13.998;2024-03-02T06:35:00;60.42;;;23.63;;
14076;SDS011;7114;51.100;13.998;2024-03-02T06:37:26;55.27;;;22.97;;
14076;SDS011;7114;51.100;13.998;2024-03-02T06:39:54;56.28;;;21.95;;
14076;SDS011;7114;51.100;13.998;2024-03-02T06:42:20;60.35;;;22.33;;
14076;SDS011;7114;51.100;13.998;2024-03-02T06:44:47;56.45;;;22.02;;
14076;SDS011;7114;51.100;13.998;2024-03-02T06:47:13;54.47;;;22.92;;
14076;SDS011;7114;51.100;13.998;2024-03-02T06:49:41;59.33;;;22.80;;
14076;SDS011;7114;51.100;13.998;2024-03-02T06:52:08;55.92;;;22.27;;
14076;SDS011;7114;51.100;13.998;2024-03-02T06:54:34;56.28;;;22.90;;
14076;SDS011;7114;51.100;13.998;2024-03-02T06:57:02;57.53;;;22.90;;
14076;SDS011;7114;51.100;13.998;2024-03-02T06:59:28;53.97;;;21.63;;
14076;SDS011;7114;51.100;13.998;2024-03-02T07:01:55;54.37;;;22.60;;
14076;SDS011;7114;51.100;13.998;2024-03-02T07:04:21;55.88;;;23.10;;
14076;SDS011;7114;51.100;13.998;2024-03-02T07:06:48;56.35;;;23.05;;
14076;SDS011;7114;51.100;13.998;2024-03-02T07:09:14;55.97;;;23.20;;
14076;SDS011;7114;51.100;13.998;2024-03-02T07:11:40;57.28;;;22.60;;
14076;SDS011;7114;51.100;13.998;2024-03-02T07:14:08;53.73;;;22.03;;
14076;SDS011;7114;51.100;13.998;2024-03-02T07:16:36;54.10;;;22.42;;
14076;SDS011;7114;51.100;13.998;2024-03-02T07:19:03;52.45;;;22.05;;
14076;SDS011;7114;51.100;13.998;2024-03-02T07:21:29;51.95;;;22.75;;
14076;SDS011;7114;51.100;13.998;2024-03-02T07:23:57;55.60;;;22.85;;
14076;SDS011;7114;51.100;13.998;2024-03-02T07:26:24;53.70;;;21.83;;
14076;SDS011;7114;51.100;13.998;2024-03-02T07:28:51;58.45;;;23.73;;
14076;SDS011;7114;51.100;13.998;2024-03-02T07:31:18;54.95;;;21.85;;
14076;SDS011;7114;51.100;13.998;2024-03-02T07:33:45;58.85;;;22.48;;
14076;SDS011;7114;51.100;13.998;2024-03-02T07:36:12;58.25;;;22.17;;
14076;SDS011;7114;51.100;13.998;2024-03-02T07:38:39;53.40;;;21.70;;
14076;SDS011;7114;51.100;13.998;2024-03-02T07:41:05;56.30;;;22.83;;
14076;SDS011;7114;51.100;13.998;2024-03-02T07:43:32;55.38;;;21.98;;
14076;SDS011;7114;51.100;13.998;2024-03-02T07:45:59;55.33;;;22.02;;
14076;SDS011;7114;51.100;13.998;2024-03-02T07:48:26;60.70;;;23.88;;
14076;SDS011;7114;51.100;13.998;2024-03-02T07:50:53;56.03;;;22.50;;
14076;SDS011;7114;51.100;13.998;2024-03-02T07:53:19;50.53;;;20.60;;
14076;SDS011;7114;51.100;13.998;2024-03-02T07:55:45;53.70;;;21.27;;
14076;SDS011;7114;51.100;13.998;2024-03-02T07:58:12;53.33;;;21.17;;
14076;SDS011;7114;51.100;13.998;2024-03-02T08:00:39;59.00;;;21.95;;
14076;SDS011;7114;51.100;13.998;2024-03-02T08:03:06;50.33;;;21.33;;
14076;SDS011;7114;51.100;13.998;2024-03-02T08:05:36;53.25;;;21.75;;
14076;SDS011;7114;51.100;13.998;2024-03-02T08:08:02;52.53;;;20.73;;
14076;SDS011;7114;51.100;13.998;2024-03-02T08:10:30;55.72;;;21.00;;
14076;SDS011;7114;51.100;13.998;2024-03-02T08:12:56;51.95;;;19.67;;
14076;SDS011;7114;51.100;13.998;2024-03-02T08:15:22;48.30;;;19.60;;
14076;SDS011;7114;51.100;13.998;2024-03-02T08:17:49;49.67;;;20.17;;
14076;SDS011;7114;51.100;13.998;2024-03-02T08:20:15;49.63;;;20.20;;
14076;SDS011;7114;51.100;13.998;2024-03-02T08:22:43;49.20;;;20.20;;
14076;SDS011;7114;51.100;13.998;2024-03-02T08:25:09;52.60;;;19.92;;
14076;SDS011;7114;51.100;13.998;2024-03-02T08:27:36;53.23;;;20.57;;
14076;SDS011;7114;51.100;13.998;2024-03-02T08:30:02;53.38;;;19.77;;
14076;SDS011;7114;51.100;13.998;2024-03-02T08:32:32;52.30;;;20.50;;
14076;SDS011;7114;51.100;13.998;2024-03-02T08:34:58;52.35;;;19.77;;
14076;SDS011;7114;51.100;13.998;2024-03-02T08:37:25;48.97;;;18.23;;
14076;SDS011;7114;51.100;13.998;2024-03-02T08:39:53;54.47;;;20.13;;
14076;SDS011;7114;51.100;13.998;2024-03-02T08:42:19;51.03;;;20.45;;
14076;SDS011;7114;51.100;13.998;2024-03-02T08:44:45;51.80;;;19.95;;
14076;SDS011;7114;51.100;13.998;2024-03-02T08:47:12;50.08;;;19.67;;
14076;SDS011;7114;51.100;13.998;2024-03-02T08:49:38;51.65;;;20.30;;
14076;SDS011;7114;51.100;13.998;2024-03-02T08:52:05;50.57;;;19.13;;
14076;SDS011;7114;51.100;13.998;2024-03-02T08:54:31;52.40;;;20.02;;
14076;SDS011;7114;51.100;13.998;2024-03-02T08:57:00;49.50;;;20.08;;
14076;SDS011;7114;51.100;13.998;2024-03-02T08:59:26;46.35;;;18.60;;
14076;SDS011;7114;51.100;13.998;2024-03-02T09:01:53;48.50;;;19.15;;
14076;SDS011;7114;51.100;13.998;2024-03-02T09:04:19;53.73;;;20.47;;
14076;SDS011;7114;51.100;13.998;2024-03-02T09:06:46;48.80;;;18.13;;
14076;SDS011;7114;51.100;13.998;2024-03-02T09:09:12;45.63;;;18.52;;
14076;SDS011;7114;51.100;13.998;2024-03-02T09:11:38;46.15;;;18.35;;
14076;SDS011;7114;51.100;13.998;2024-03-02T09:14:06;44.22;;;18.65;;
14076;SDS011;7114;51.100;13.998;2024-03-02T09:16:32;45.97;;;18.30;;
14076;SDS011;7114;51.100;13.998;2024-03-02T09:18:59;44.47;;;18.08;;
14076;SDS011;7114;51.100;13.998;2024-03-02T09:21:25;50.30;;;19.05;;
14076;SDS011;7114;51.100;13.998;2024-03-02T09:23:52;47.33;;;18.33;;
14076;SDS011;7114;51.100;13.998;2024-03-02T09:26:18;48.60;;;18.42;;
14076;SDS011;7114;51.100;13.998;2024-03-02T09:28:45;46.77;;;18.50;;
14076;SDS011;7114;51.100;13.998;2024-03-02T09:31:13;44.17;;;17.10;;
14076;SDS011;7114;51.100;13.998;2024-03-02T09:33:39;41.47;;;17.80;;
14076;SDS011;7114;51.100;13.998;2024-03-02T09:36:10;43.90;;;18.05;;
14076;SDS011;7114;51.100;13.998;2024-03-02T09:38:42;39.45;;;16.85;;
14076;SDS011;7114;51.100;13.998;2024-03-02T09:41:09;41.63;;;17.37;;
14076;SDS011;7114;51.100;13.998;2024-03-02T09:43:35;42.05;;;17.15;;
14076;SDS011;7114;51.100;13.998;2024-03-02T09:46:01;42.03;;;17.20;;
14076;SDS011;7114;51.100;13.998;2024-03-02T09:48:30;39.97;;;16.88;;
14076;SDS011;7114;51.100;13.998;2024-03-02T09:50:56;41.88;;;17.23;;
14076;SDS011;7114;51.100;13.998;2024-03-02T09:53:22;40.97;;;16.63;;
14076;SDS011;7114;51.100;13.998;2024-03-02T09:55:49;39.60;;;16.52;;
14076;SDS011;7114;51.100;13.998;2024-03-02T09:58:16;38.65;;;16.20;;
14076;SDS011;7114;51.100;13.998;2024-03-02T10:00:42;40.25;;;16.20;;
14076;SDS011;7114;51.100;13.998;2024-03-02T10:03:11;38.35;;;15.55;;
14076;SDS011;7114;51.100;13.998;2024-03-02T10:05:39;32.73;;;14.43;;
14076;SDS011;7114;51.100;13.998;2024-03-02T10:08:05;36.70;;;15.15;;
14076;SDS011;7114;51.100;13.998;2024-03-02T10:10:35;33.60;;;14.98;;
14076;SDS011;7114;51.100;13.998;2024-03-02T10:13:05;36.38;;;15.60;;
14076;SDS011;7114;51.100;13.998;2024-03-02T10:15:32;38.83;;;15.23;;
14076;SDS011;7114;51.100;13.998;2024-03-02T10:17:58;31.90;;;14.13;;
14076;SDS011;7114;51.100;13.998;2024-03-02T10:20:25;35.03;;;15.30;;
14076;SDS011;7114;51.100;13.998;2024-03-02T10:22:55;31.15;;;12.68;;
14076;SDS011;7114;51.100;13.998;2024-03-02T10:25:28;28.20;;;12.63;;
14076;SDS011;7114;51.100;13.998;2024-03-02T10:27:56;27.15;;;12.02;;
14076;SDS011;7114;51.100;13.998;2024-03-02T10:30:23;27.30;;;11.63;;
14076;SDS011;7114;51.100;13.998;2024-03-02T10:32:49;28.67;;;11.40;;
14076;SDS011;7114;51.100;13.998;2024-03-02T10:35:16;26.17;;;11.35;;
14076;SDS011;7114;51.100;13.998;2024-03-02T10:37:42;23.92;;;11.02;;
14076;SDS011;7114;51.100;13.998;2024-03-02T10:40:11;24.50;;;11.18;;
14076;SDS011;7114;51.100;13.998;2024-03-02T10:42:38;25.07;;;11.10;;
14076;SDS011;7114;51.100;13.998;2024-03-02T10:45:05;26.02;;;11.10;;
14076;SDS011;7114;51.100;13.998;2024-03-02T10:47:32;23.85;;;11.52;;
14076;SDS011;7114;51.100;13.998;2024-03-02T10:49:59;24.08;;;11.02;;
14076;SDS011;7114;51.100;13.998;2024-03-02T10:52:27;25.52;;;11.07;;
14076;SDS011;7114;51.100;13.998;2024-03-02T10:54:54;26.97;;;11.80;;
14076;SDS011;7114;51.100;13.998;2024-03-02T10:57:21;26.95;;;12.27;;
14076;SDS011;7114;51.100;13.998;2024-03-02T10:59:51;29.25;;;11.82;;
14076;SDS011;7114;51.100;13.998;2024-03-02T11:02:18;25.15;;;11.48;;
14076;SDS011;7114;51.100;13.998;2024-03-02T11:04:46;26.52;;;12.43;;
14076;SDS011;7114;51.100;13.998;2024-03-02T11:07:14;26.13;;;11.93;;
14076;SDS011;7114;51.100;13.998;2024-03-02T11:09:42;28.45;;;12.32;;
14076;SDS011;7114;51.100;13.998;2024-03-02T11:12:12;25.00;;;11.75;;
14076;SDS011;7114;51.100;13.998;2024-03-02T11:14:44;24.77;;;10.60;;
14076;SDS011;7114;51.100;13.998;2024-03-02T11:17:11;24.50;;;11.05;;
14076;SDS011;7114;51.100;13.998;2024-03-02T11:19:40;24.23;;;10.70;;
14076;SDS011;7114;51.100;13.998;2024-03-02T11:22:07;23.27;;;11.88;;
14076;SDS011;7114;51.100;13.998;2024-03-02T11:24:34;27.77;;;11.48;;
14076;SDS011;7114;51.100;13.998;2024-03-02T11:27:02;25.92;;;11.55;;
14076;SDS011;7114;51.100;13.998;2024-03-02T11:29:45;24.92;;;11.45;;
14076;SDS011;7114;51.100;13.998;2024-03-02T11:32:20;25.43;;;11.37;;
14076;SDS011;7114;51.100;13.998;2024-03-02T11:34:48;20.40;;;10.45;;
14076;SDS011;7114;51.100;13.998;2024-03-02T11:37:15;21.92;;;10.35;;
14076;SDS011;7114;51.100;13.998;2024-03-02T11:39:43;22.58;;;10.48;;
14076;SDS011;7114;51.100;13.998;2024-03-02T11:42:10;23.45;;;11.18;;
14076;SDS011;7114;51.100;13.998;2024-03-02T11:44:39;21.20;;;9.57;;
14076;SDS011;7114;51.100;13.998;2024-03-02T11:47:10;22.00;;;9.93;;
14076;SDS011;7114;51.100;13.998;2024-03-02T11:49:39;21.90;;;10.32;;
14076;SDS011;7114;51.100;13.998;2024-03-02T11:52:07;22.88;;;10.13;;
14076;SDS011;7114;51.100;13.998;2024-03-02T11:54:34;25.50;;;10.38;;
14076;SDS011;7114;51.100;13.998;2024-03-02T11:57:04;19.20;;;9.50;;
14076;SDS011;7114;51.100;13.998;2024-03-02T11:59:31;19.88;;;8.75;;
14076;SDS011;7114;51.100;13.998;2024-03-02T12:01:57;18.35;;;8.60;;
14076;SDS011;7114;51.100;13.998;2024-03-02T12:04:26;19.70;;;9.00;;
14076;SDS011;7114;51.100;13.998;2024-03-02T12:06:55;22.77;;;10.02;;
14076;SDS011;7114;51.100;13.998;2024-03-02T12:09:25;20.77;;;9.50;;
14076;SDS011;7114;51.100;13.998;2024-03-02T12:12:00;26.83;;;10.02;;
14076;SDS011;7114;51.100;13.998;2024-03-02T12:14:27;22.70;;;9.90;;
14076;SDS011;7114;51.100;13.998;2024-03-02T12:16:54;20.92;;;9.95;;
14076;SDS011;7114;51.100;13.998;2024-03-02T12:19:21;23.17;;;10.02;;
14076;SDS011;7114;51.100;13.998;2024-03-02T12:21:48;21.10;;;10.37;;
14076;SDS011;7114;51.100;13.998;2024-03-02T12:24:15;23.60;;;10.25;;
14076;SDS011;7114;51.100;13.998;2024-03-02T12:26:41;20.25;;;9.23;;
14076;SDS011;7114;51.100;13.998;2024-03-02T12:29:08;22.75;;;9.18;;
14076;SDS011;7114;51.100;13.998;2024-03-02T12:31:34;21.60;;;9.48;;
14076;SDS011;7114;51.100;13.998;2024-03-02T12:34:01;21.40;;;9.00;;
14076;SDS011;7114;51.100;13.998;2024-03-02T12:36:28;22.70;;;9.23;;
14076;SDS011;7114;51.100;13.998;2024-03-02T12:38:55;21.33;;;9.10;;
14076;SDS011;7114;51.100;13.998;2024-03-02T12:41:22;19.10;;;8.50;;
14076;SDS011;7114;51.100;13.998;2024-03-02T12:43:49;20.95;;;8.82;;
14076;SDS011;7114;51.100;13.998;2024-03-02T12:46:15;19.87;;;8.13;;
14076;SDS011;7114;51.100;13.998;2024-03-02T12:48:41;18.67;;;9.20;;
14076;SDS011;7114;51.100;13.998;2024-03-02T12:51:08;18.55;;;8.07;;
14076;SDS011;7114;51.100;13.998;2024-03-02T12:53:34;18.55;;;8.32;;
14076;SDS011;7114;51.100;13.998;2024-03-02T12:56:04;19.65;;;8.40;;
14076;SDS011;7114;51.100;13.998;2024-03-02T12:58:31;21.90;;;8.53;;
14076;SDS011;7114;51.100;13.998;2024-03-02T13:01:05;18.25;;;8.30;;
14076;SDS011;7114;51.100;13.998;2024-03-02T13:03:34;20.88;;;8.52;;
14076;SDS011;7114;51.100;13.998;2024-03-02T13:06:01;19.67;;;7.95;;
14076;SDS011;7114;51.100;13.998;2024-03-02T13:08:28;18.58;;;7.68;;
14076;SDS011;7114;51.100;13.998;2024-03-02T13:10:54;17.47;;;7.40;;
14076;SDS011;7114;51.100;13.998;2024-03-02T13:13:22;21.17;;;8.13;;
14076;SDS011;7114;51.100;13.998;2024-03-02T13:15:49;17.27;;;7.22;;
14076;SDS011;7114;51.100;13.998;2024-03-02T13:18:17;17.58;;;7.50;;
14076;SDS011;7114;51.100;13.998;2024-03-02T13:20:44;18.50;;;7.35;;
14076;SDS011;7114;51.100;13.998;2024-03-02T13:23:10;18.97;;;7.47;;
14076;SDS011;7114;51.100;13.998;2024-03-02T13:25:37;18.95;;;7.35;;
14076;SDS011;7114;51.100;13.998;2024-03-02T13:28:03;18.13;;;7.35;;
14076;SDS011;7114;51.100;13.998;2024-03-02T13:30:31;15.80;;;6.85;;
14076;SDS011;7114;51.100;13.998;2024-03-02T13:32:58;19.05;;;6.88;;
14076;SDS011;7114;51.100;13.998;2024-03-02T13:35:24;21.37;;;7.50;;
14076;SDS011;7114;51.100;13.998;2024-03-02T13:37:51;16.45;;;6.93;;
14076;SDS011;7114;51.100;13.998;2024-03-02T13:40:17;15.75;;;6.63;;
14076;SDS011;7114;51.100;13.998;2024-03-02T13:42:45;16.58;;;7.15;;
14076;SDS011;7114;51.100;13.998;2024-03-02T13:45:11;15.13;;;6.20;;
14076;SDS011;7114;51.100;13.998;2024-03-02T13:47:39;15.83;;;6.40;;
14076;SDS011;7114;51.100;13.998;2024-03-02T13:50:05;17.85;;;6.63;;
14076;SDS011;7114;51.100;13.998;2024-03-02T13:52:32;19.83;;;6.72;;
14076;SDS011;7114;51.100;13.998;2024-03-02T13:54:59;14.52;;;6.65;;
14076;SDS011;7114;51.100;13.998;2024-03-02T13:57:25;16.60;;;6.55;;
14076;SDS011;7114;51.100;13.998;2024-03-02T13:59:51;16.37;;;7.00;;
14076;SDS011;7114;51.100;13.998;2024-03-02T14:02:18;16.08;;;6.68;;
14076;SDS011;7114;51.100;13.998;2024-03-02T14:04:46;17.05;;;7.00;;
14076;SDS011;7114;51.100;13.998;2024-03-02T14:07:14;17.35;;;7.43;;
14076;SDS011;7114;51.100;13.998;2024-03-02T14:09:41;17.58;;;7.18;;
14076;SDS011;7114;51.100;13.998;2024-03-02T14:12:08;19.60;;;7.53;;
14076;SDS011;7114;51.100;13.998;2024-03-02T14:14:35;18.50;;;7.43;;
14076;SDS011;7114;51.100;13.998;2024-03-02T14:17:01;18.00;;;6.93;;
14076;SDS011;7114;51.100;13.998;2024-03-02T14:19:31;18.08;;;7.45;;
14076;SDS011;7114;51.100;13.998;2024-03-02T14:21:59;16.33;;;7.25;;